Time;durP1;ratioP1;P1;durP2;ratioP2;P2;SDS_P1;SDS_P2;PMS_P1;PMS_P2;Temp;Humidity;BMP_temperature;BMP_pressure;BME280_temperature;BME280_humidity;BME280_pressure;Samples;Min_cycle;Max_cycle;Signal;HPM_P1;HPM_P2
2023/03/10 00:00:21;;;;;;;1.33;0.70;;;;;;;10.44;85.40;97908.66;4981677;28;20136;-81
2023/03/10 00:02:49;;;;;;;1.38;1.00;;;;;;;10.43;85.41;97897.25;4981315;28;20042;-81
2023/03/10 00:05:17;;;;;;;4.72;0.88;;;;;;;10.45;85.48;97898.88;4966186;28;20087;-82
2023/03/10 00:07:44;;;;;;;5.65;2.17;;;;;;;10.44;85.77;97895.41;4959297;28;20125;-81
2023/03/10 00:10:13;;;;;;;12.77;4.25;;;;;;;10.44;85.89;97892.75;4979378;28;20425;-81
2023/03/10 00:12:39;;;;;;;16.92;4.90;;;;;;;10.44;86.20;97895.41;4964993;28;20047;-81
2023/03/10 00:15:07;;;;;;;11.57;3.28;;;;;;;10.43;85.95;97886.63;4980711;28;20490;-81
2023/03/10 00:17:34;;;;;;;13.05;4.00;;;;;;;10.43;86.27;97883.97;4969842;28;20046;-81
2023/03/10 00:20:06;;;;;;;8.93;2.72;;;;;;;10.44;85.97;97882.13;4972425;28;20043;-81
2023/03/10 00:22:34;;;;;;;12.18;3.42;;;;;;;10.44;86.21;97879.47;4969834;28;20054;-81
2023/03/10 00:25:00;;;;;;;9.82;3.58;;;;;;;10.44;86.21;97868.88;4963087;28;20133;-81
2023/03/10 00:27:27;;;;;;;11.98;3.70;;;;;;;10.45;86.00;97859.06;4982831;28;20050;-81
2023/03/10 00:29:54;;;;;;;12.63;3.88;;;;;;;10.45;86.15;97853.75;4981656;28;20053;-81
2023/03/10 00:32:21;;;;;;;10.52;3.20;;;;;;;10.46;85.86;97858.91;4977447;28;20116;-81
2023/03/10 00:34:48;;;;;;;12.23;3.00;;;;;;;10.48;86.00;97864.84;4984527;28;20435;-81
2023/03/10 00:37:15;;;;;;;8.30;2.00;;;;;;;10.47;85.95;97865.03;4968631;28;20625;-81
2023/03/10 00:39:42;;;;;;;3.70;1.60;;;;;;;10.48;85.78;97856.03;4967987;28;20120;-81
2023/03/10 00:42:09;;;;;;;3.60;1.65;;;;;;;10.48;85.72;97872.81;4982113;28;22533;-81
2023/03/10 00:44:36;;;;;;;2.90;1.45;;;;;;;10.48;85.83;97869.31;4972389;28;20164;-81
2023/03/10 00:47:02;;;;;;;7.78;2.08;;;;;;;10.48;85.76;97859.53;4984689;28;20042;-81
2023/03/10 00:49:29;;;;;;;6.15;1.90;;;;;;;10.49;85.60;97863.84;4991443;28;20078;-81
2023/03/10 00:51:56;;;;;;;5.00;1.90;;;;;;;10.50;85.56;97859.34;4969856;28;20108;-81
2023/03/10 00:54:23;;;;;;;4.82;1.50;;;;;;;10.50;85.74;97854.84;4981066;28;20050;-81
2023/03/10 00:56:49;;;;;;;4.47;1.27;;;;;;;10.51;85.40;97845.91;4973942;28;20046;-81
2023/03/10 00:59:16;;;;;;;7.55;1.20;;;;;;;10.50;85.54;97841.59;4985361;28;20105;-80
2023/03/10 01:01:43;;;;;;;3.13;1.00;;;;;;;10.51;85.59;97839.78;4980382;28;20069;-81
2023/03/10 01:04:14;;;;;;;7.50;2.28;;;;;;;10.48;85.69;97834.81;4990105;28;20057;-81
2023/03/10 01:06:43;;;;;;;2.72;1.33;;;;;;;10.51;85.67;97823.84;4983278;28;20038;-81
2023/03/10 01:09:10;;;;;;;3.20;0.90;;;;;;;10.51;85.95;97823.84;4970657;28;20120;-81
2023/03/10 01:11:36;;;;;;;2.95;0.90;;;;;;;10.51;86.11;97807.94;4985607;28;20108;-82
2023/03/10 01:14:05;;;;;;;4.53;1.20;;;;;;;10.51;86.20;97806.09;4986744;28;20069;-81
2023/03/10 01:16:33;;;;;;;2.78;1.08;;;;;;;10.50;86.34;97807.09;4985294;28;20065;-81
2023/03/10 01:19:00;;;;;;;3.50;1.10;;;;;;;10.49;86.85;97802.81;4982270;28;20046;-81
2023/03/10 01:21:29;;;;;;;1.83;0.90;;;;;;;10.48;86.91;97801.16;4984200;28;20097;-81
2023/03/10 01:23:56;;;;;;;1.95;0.95;;;;;;;10.48;87.04;97810.94;4969957;28;20050;-81
2023/03/10 01:26:22;;;;;;;2.15;0.82;;;;;;;10.48;87.13;97797.66;4984692;28;20042;-81
2023/03/10 01:28:49;;;;;;;1.85;0.80;;;;;;;10.47;87.34;97783.59;4981693;28;20069;-81
2023/03/10 01:31:17;;;;;;;2.92;0.93;;;;;;;10.43;88.05;97775.19;4958214;28;20057;-81
2023/03/10 01:33:44;;;;;;;6.10;0.82;;;;;;;10.43;88.43;97769.03;4970518;28;20034;-81
2023/03/10 01:36:14;;;;;;;1.42;0.68;;;;;;;10.41;88.61;97765.75;4968968;28;20428;-81
2023/03/10 01:38:44;;;;;;;1.90;0.75;;;;;;;10.40;88.71;97754.31;4986301;28;20042;-81
2023/03/10 01:41:12;;;;;;;3.00;0.80;;;;;;;10.39;88.99;97752.66;4986881;28;20502;-81
2023/03/10 01:43:43;;;;;;;1.35;0.95;;;;;;;10.37;89.64;97744.06;4958613;28;20081;-81
2023/03/10 01:46:34;;;;;;;2.05;0.70;;;;;;;10.32;90.38;97729.72;4949549;28;20038;-81
2023/03/10 01:49:14;;;;;;;1.20;0.70;;;;;;;10.33;90.03;97737.50;4981806;28;20403;-81
2023/03/10 01:51:43;;;;;;;2.58;1.13;;;;;;;10.33;90.18;97728.69;4991410;28;20050;-81
2023/03/10 01:54:14;;;;;;;2.53;0.68;;;;;;;10.30;90.15;97721.94;4973925;28;20176;-81
2023/03/10 01:56:41;;;;;;;1.60;0.68;;;;;;;10.33;90.14;97726.06;4983888;28;20058;-81
2023/03/10 01:59:09;;;;;;;1.00;0.65;;;;;;;10.32;90.45;97727.88;4964881;28;20035;-81
2023/03/10 02:01:36;;;;;;;1.92;0.77;;;;;;;10.33;90.72;97728.69;4952018;28;20050;-81
2023/03/10 02:04:31;;;;;;;6.38;0.75;;;;;;;10.24;91.57;97716.53;4983390;28;20105;-81
2023/03/10 02:06:58;;;;;;;3.22;0.85;;;;;;;10.29;90.86;97730.91;4956915;28;20055;-81
2023/03/10 02:09:25;;;;;;;5.55;1.25;;;;;;;10.29;91.19;97715.00;4950702;28;20564;-81
2023/03/10 02:11:52;;;;;;;1.67;0.70;;;;;;;10.29;91.08;97719.50;4951658;28;20043;-81
2023/03/10 02:14:19;;;;;;;1.27;0.70;;;;;;;10.27;91.60;97718.81;4962915;28;20050;-81
2023/03/10 02:16:46;;;;;;;2.83;1.08;;;;;;;10.26;91.83;97725.97;4949088;28;20105;-81
2023/03/10 02:19:37;;;;;;;4.40;1.10;;;;;;;10.17;93.12;97727.06;4942503;28;20069;-81
2023/03/10 02:22:06;;;;;;;4.78;1.02;;;;;;;10.20;92.29;97716.06;4927807;28;20130;-81
2023/03/10 02:24:45;;;;;;;3.88;0.88;;;;;;;10.14;93.77;97722.13;4934589;28;20042;-82
2023/03/10 02:27:16;;;;;;;2.67;0.80;;;;;;;10.17;92.97;97716.44;4971514;28;20047;-81
2023/03/10 02:29:51;;;;;;;4.78;1.40;;;;;;;10.12;93.85;97710.88;4921701;28;20499;-81
2023/03/10 02:32:31;;;;;;;11.05;2.47;;;;;;;10.14;93.45;97716.81;4909409;28;20567;-81
2023/03/10 02:34:58;;;;;;;9.18;1.92;;;;;;;10.13;93.52;97708.06;4899287;28;20422;-81
2023/03/10 02:37:29;;;;;;;4.05;1.20;;;;;;;10.13;93.74;97702.75;4914091;28;20051;-81
2023/03/10 02:39:56;;;;;;;5.68;1.67;;;;;;;10.12;93.82;97703.72;4896387;28;20047;-81
2023/03/10 02:42:28;;;;;;;4.70;2.13;;;;;;;10.09;94.46;97701.47;4918457;28;20703;-81
2023/03/10 02:44:56;;;;;;;4.07;1.80;;;;;;;10.09;94.20;97698.00;4886569;29;23102;-81
2023/03/10 02:47:23;;;;;;;4.95;1.70;;;;;;;10.08;94.37;97696.34;4894037;29;20043;-81
2023/03/10 02:49:50;;;;;;;4.93;2.00;;;;;;;10.10;94.07;97703.13;4883299;29;20603;-81
2023/03/10 02:52:37;;;;;;;4.78;1.25;;;;;;;10.06;94.64;97699.19;4879563;29;20055;-81
2023/03/10 02:55:04;;;;;;;1.95;1.00;;;;;;;10.07;94.63;97700.00;4863118;29;20617;-81
2023/03/10 02:57:31;;;;;;;3.40;1.23;;;;;;;10.04;94.76;97701.19;4908748;29;20633;-81
2023/03/10 03:00:00;;;;;;;3.78;0.98;;;;;;;10.05;94.81;97707.31;4904752;28;20051;-81
2023/03/10 03:02:27;;;;;;;3.28;1.55;;;;;;;10.07;94.51;97700.81;4948962;28;20166;-81
2023/03/10 03:04:53;;;;;;;4.32;1.13;;;;;;;10.05;94.73;97696.72;4953411;28;20074;-81
2023/03/10 03:07:20;;;;;;;5.93;1.30;;;;;;;10.05;94.84;97696.72;4950994;28;20489;-81
2023/03/10 03:09:47;;;;;;;6.13;1.00;;;;;;;10.06;94.84;97690.41;4942297;28;20050;-81
2023/03/10 03:12:14;;;;;;;3.72;1.40;;;;;;;10.05;94.96;97683.44;4950890;28;20077;-81
2023/03/10 03:14:41;;;;;;;6.13;2.20;;;;;;;10.02;94.99;97689.13;4953588;28;20405;-82
2023/03/10 03:17:08;;;;;;;9.10;2.03;;;;;;;10.03;95.01;97673.03;4969309;28;20126;-81
2023/03/10 03:19:34;;;;;;;5.25;2.08;;;;;;;10.04;94.81;97677.31;4968411;28;20043;-81
2023/03/10 03:22:01;;;;;;;5.32;1.92;;;;;;;10.07;94.75;97670.84;4976774;28;20045;-81
2023/03/10 03:24:30;;;;;;;4.90;1.60;;;;;;;10.05;94.85;97673.69;4964332;28;20069;-81
2023/03/10 03:26:58;;;;;;;3.85;2.00;;;;;;;10.06;94.75;97669.19;4976158;28;20058;-81
2023/03/10 03:29:26;;;;;;;7.88;2.05;;;;;;;10.06;94.78;97662.06;4968983;28;20051;-81
2023/03/10 03:31:53;;;;;;;5.45;1.55;;;;;;;10.05;95.07;97665.72;4952382;28;20456;-81
2023/03/10 03:34:24;;;;;;;4.72;1.38;;;;;;;10.05;95.00;97660.44;4978882;28;20045;-81
2023/03/10 03:36:54;;;;;;;8.68;2.10;;;;;;;10.07;94.84;97654.94;4983213;28;20054;-81
2023/03/10 03:39:26;;;;;;;4.93;1.98;;;;;;;10.06;95.04;97654.09;4968051;28;20045;-81
2023/03/10 03:41:57;;;;;;;7.03;1.67;;;;;;;10.06;95.03;97648.81;4982210;28;20544;-81
2023/03/10 03:44:28;;;;;;;7.22;1.98;;;;;;;10.08;94.82;97651.28;4948731;28;20054;-81
2023/03/10 03:46:56;;;;;;;2.78;1.38;;;;;;;10.09;94.73;97648.44;4967446;28;20084;-81
2023/03/10 03:49:24;;;;;;;3.67;1.50;;;;;;;10.11;94.50;97643.75;4972694;28;20134;-81
2023/03/10 03:51:50;;;;;;;7.47;1.73;;;;;;;10.13;94.29;97639.09;4976494;28;20138;-81
2023/03/10 03:54:18;;;;;;;6.30;2.70;;;;;;;10.13;94.28;97640.94;4989627;28;20081;-81
2023/03/10 03:56:45;;;;;;;4.50;1.70;;;;;;;10.15;94.45;97645.03;4986520;28;20047;-82
2023/03/10 03:59:13;;;;;;;7.47;2.22;;;;;;;10.15;94.45;97641.53;4979532;28;20043;-82
2023/03/10 04:01:40;;;;;;;9.57;2.65;;;;;;;10.14;94.54;97648.69;4968385;28;20049;-82
2023/03/10 04:04:07;;;;;;;23.80;7.32;;;;;;;10.14;94.75;97650.53;4979742;28;20047;-81
2023/03/10 04:06:35;;;;;;;21.30;7.50;;;;;;;10.12;94.75;97644.56;4971345;28;20431;-81
2023/03/10 04:09:03;;;;;;;14.45;5.80;;;;;;;10.12;94.88;97644.56;4979480;28;20100;-81
2023/03/10 04:11:31;;;;;;;7.68;2.80;;;;;;;10.13;94.56;97636.44;4968486;28;20049;-81
2023/03/10 04:13:59;;;;;;;6.00;1.52;;;;;;;10.12;95.11;97640.09;4976857;28;20049;-81
2023/03/10 04:16:26;;;;;;;10.27;4.57;;;;;;;10.12;95.30;97634.78;4983200;28;20047;-81
2023/03/10 04:18:53;;;;;;;27.77;12.50;;;;;;;10.09;95.44;97637.81;4953500;28;20125;-81
2023/03/10 04:21:20;;;;;;;31.25;17.33;;;;;;;10.10;95.50;97634.19;4978570;28;20105;-81
2023/03/10 04:23:50;;;;;;;28.65;18.98;;;;;;;10.07;95.77;97642.47;4968673;28;20054;-81
2023/03/10 04:26:21;;;;;;;26.27;19.35;;;;;;;10.06;96.07;97637.38;4986759;28;20058;-81
2023/03/10 04:28:48;;;;;;;33.90;19.50;;;;;;;10.06;96.25;97637.38;4958416;28;22214;-81
2023/03/10 04:31:18;;;;;;;60.72;18.52;;;;;;;10.04;96.33;97634.09;4983216;28;20573;-81
2023/03/10 04:33:46;;;;;;;57.78;15.50;;;;;;;10.02;96.62;97633.44;4942539;28;20051;-81
2023/03/10 04:36:14;;;;;;;35.95;10.32;;;;;;;10.03;96.59;97635.09;4967843;28;20053;-81
2023/03/10 04:38:43;;;;;;;17.58;4.88;;;;;;;10.02;96.76;97628.16;4966928;28;20157;-81
2023/03/10 04:41:10;;;;;;;12.43;4.22;;;;;;;10.00;96.79;97633.66;4936294;28;20079;-81
2023/03/10 04:43:40;;;;;;;20.52;7.53;;;;;;;9.98;96.88;97631.19;4951216;28;21205;-81
2023/03/10 04:46:10;;;;;;;12.25;6.10;;;;;;;9.98;96.82;97619.75;4949681;28;20462;-81
2023/03/10 04:48:38;;;;;;;15.90;5.03;;;;;;;9.97;96.77;97618.09;4945723;28;20038;-81
2023/03/10 04:51:14;;;;;;;25.42;8.05;;;;;;;9.91;97.51;97626.81;4979365;28;20087;-81
2023/03/10 04:53:46;;;;;;;24.58;8.10;;;;;;;9.93;96.87;97622.16;4913744;28;20434;-81
2023/03/10 04:56:13;;;;;;;30.05;8.43;;;;;;;9.91;96.83;97621.50;4926612;28;20051;-81
2023/03/10 04:58:41;;;;;;;18.27;7.38;;;;;;;9.87;96.81;97618.41;4922027;28;20134;-81
2023/03/10 05:01:10;;;;;;;11.73;5.82;;;;;;;9.87;96.79;97610.47;4912265;28;20035;-81
2023/03/10 05:03:40;;;;;;;7.60;3.58;;;;;;;9.82;97.11;97607.53;4922621;28;20063;-81
2023/03/10 05:06:18;;;;;;;8.20;3.65;;;;;;;9.75;96.89;97604.81;4934782;28;20422;-81
2023/03/10 05:08:50;;;;;;;10.23;3.95;;;;;;;9.78;96.63;97600.97;4939649;28;20051;-81
2023/03/10 05:11:22;;;;;;;15.10;5.70;;;;;;;9.74;96.44;97584.63;4895296;28;20586;-81
2023/03/10 05:13:49;;;;;;;9.20;5.70;;;;;;;9.72;96.31;97583.97;4917111;28;20463;-81
2023/03/10 05:16:20;;;;;;;7.85;3.97;;;;;;;9.72;95.83;97585.81;4912254;28;20437;-81
2023/03/10 05:18:49;;;;;;;6.85;4.18;;;;;;;9.70;96.05;97588.63;4926078;28;20124;-81
2023/03/10 05:21:21;;;;;;;8.43;4.65;;;;;;;9.67;95.94;97591.66;4914014;28;20470;-82
2023/03/10 05:23:49;;;;;;;10.40;3.75;;;;;;;9.67;95.78;97585.53;4924508;28;20115;-82
2023/03/10 05:26:17;;;;;;;7.82;3.53;;;;;;;9.72;95.51;97583.97;4970553;28;20105;-81
2023/03/10 05:28:45;;;;;;;4.75;2.67;;;;;;;9.71;95.68;97578.84;4943982;28;20395;-81
2023/03/10 05:31:15;;;;;;;6.75;3.17;;;;;;;9.73;95.61;97580.31;4978908;28;20056;-81
2023/03/10 05:33:44;;;;;;;7.25;3.08;;;;;;;9.72;95.75;97570.72;4986360;28;20050;-81
2023/03/10 05:36:13;;;;;;;10.88;3.95;;;;;;;9.75;95.37;97566.88;4976231;28;20125;-82
2023/03/10 05:38:42;;;;;;;9.40;3.28;;;;;;;9.74;95.33;97566.06;4970327;28;20050;-82
2023/03/10 05:41:12;;;;;;;3.67;1.95;;;;;;;9.74;95.21;97558.13;4987837;28;20054;-82
2023/03/10 05:43:40;;;;;;;6.15;3.45;;;;;;;9.72;95.32;97549.53;4984645;28;20053;-82
2023/03/10 05:46:09;;;;;;;12.02;1.85;;;;;;;9.70;95.05;97546.22;4966529;28;20054;-82
2023/03/10 05:48:42;;;;;;;2.22;1.40;;;;;;;9.64;95.09;97547.00;4958565;28;20406;-82
2023/03/10 05:51:11;;;;;;;5.57;3.03;;;;;;;9.61;94.78;97552.63;4971088;28;20050;-82
2023/03/10 05:53:38;;;;;;;7.97;3.85;;;;;;;9.57;94.91;97546.09;4969649;28;20057;-82
2023/03/10 05:56:14;;;;;;;5.07;2.85;;;;;;;9.52;94.55;97543.16;4994665;28;20461;-82
2023/03/10 05:58:43;;;;;;;6.82;2.30;;;;;;;9.49;94.81;97548.81;4981123;28;20042;-82
2023/03/10 06:01:11;;;;;;;3.90;1.75;;;;;;;9.49;94.26;97543.50;4964550;28;20057;-82
2023/03/10 06:03:38;;;;;;;2.75;1.50;;;;;;;9.44;94.50;97551.19;4977550;28;20042;-82
2023/03/10 06:06:06;;;;;;;3.70;2.50;;;;;;;9.47;94.44;97556.16;4980331;28;20058;-82
2023/03/10 06:08:33;;;;;;;4.90;2.28;;;;;;;9.46;94.70;97555.31;4982450;28;20097;-82
2023/03/10 06:11:00;;;;;;;4.30;1.73;;;;;;;9.51;94.39;97552.91;4980044;28;20109;-82
2023/03/10 06:13:26;;;;;;;5.40;1.40;;;;;;;9.53;94.45;97555.41;4973962;28;20057;-82
2023/03/10 06:15:55;;;;;;;8.85;1.80;;;;;;;9.57;94.38;97535.50;4968854;28;20081;-82
2023/03/10 06:18:22;;;;;;;2.13;1.45;;;;;;;9.58;94.36;97539.75;4976174;28;20050;-82
2023/03/10 06:20:49;;;;;;;3.40;1.30;;;;;;;9.61;94.28;97538.56;4983766;28;20154;-82
2023/03/10 06:23:16;;;;;;;2.78;1.05;;;;;;;9.65;93.92;97539.84;4981869;28;20052;-82
2023/03/10 06:25:44;;;;;;;6.30;1.30;;;;;;;9.68;93.72;97540.28;4981766;28;20056;-82
2023/03/10 06:28:12;;;;;;;4.18;1.60;;;;;;;9.70;93.89;97540.94;4991229;28;20489;-82
2023/03/10 06:30:39;;;;;;;5.00;2.10;;;;;;;9.75;93.73;97537.72;4964671;28;20671;-82
2023/03/10 06:33:05;;;;;;;4.43;1.70;;;;;;;9.76;93.89;97537.53;4961471;28;20046;-83
2023/03/10 06:35:32;;;;;;;5.93;1.88;;;;;;;9.76;93.96;97536.72;4986353;28;20054;-82
2023/03/10 06:37:59;;;;;;;3.65;1.63;;;;;;;9.80;93.74;97534.53;4964822;28;20057;-82
2023/03/10 06:40:27;;;;;;;6.15;1.77;;;;;;;9.80;93.72;97535.34;4984675;28;20056;-82
2023/03/10 06:42:53;;;;;;;6.28;1.90;;;;;;;9.83;93.71;97534.97;4971114;28;20065;-82
2023/03/10 06:45:20;;;;;;;3.45;1.75;;;;;;;9.84;93.61;97527.81;4981701;28;20054;-82
2023/03/10 06:47:47;;;;;;;7.18;2.90;;;;;;;9.84;93.86;97525.16;4971708;28;20054;-82
2023/03/10 06:50:16;;;;;;;6.63;2.42;;;;;;;9.84;93.58;97523.34;4969140;28;20054;-82
2023/03/10 06:52:44;;;;;;;4.82;1.95;;;;;;;9.85;93.54;97519.69;4982333;28;20051;-82
2023/03/10 06:55:12;;;;;;;5.18;1.80;;;;;;;9.86;93.48;97515.22;4987154;28;20125;-82
2023/03/10 06:57:39;;;;;;;4.47;1.63;;;;;;;9.86;93.52;97510.72;4971629;28;20050;-82
2023/03/10 07:00:10;;;;;;;8.10;1.50;;;;;;;9.86;93.41;97516.03;4985165;28;20045;-82
2023/03/10 07:02:37;;;;;;;5.95;1.42;;;;;;;9.89;93.48;97512.19;4979922;28;20053;-82
2023/03/10 07:05:10;;;;;;;2.97;1.00;;;;;;;9.88;93.34;97508.72;4974137;28;20050;-82
2023/03/10 07:07:37;;;;;;;2.90;1.25;;;;;;;9.88;93.50;97506.06;4966611;28;20509;-82
2023/03/10 07:10:04;;;;;;;4.15;1.55;;;;;;;9.90;93.60;97516.47;4987224;28;20039;-82
2023/03/10 07:12:34;;;;;;;4.88;1.63;;;;;;;9.93;93.46;97514.25;4969600;28;20047;-82
2023/03/10 07:15:00;;;;;;;4.75;2.65;;;;;;;9.98;93.25;97505.75;4976589;28;20058;-82
2023/03/10 07:17:27;;;;;;;4.35;1.95;;;;;;;10.03;93.07;97511.31;4968761;28;20041;-82
2023/03/10 07:19:54;;;;;;;3.35;1.60;;;;;;;10.05;92.93;97514.59;4990926;28;20481;-82
2023/03/10 07:22:21;;;;;;;2.10;1.23;;;;;;;10.06;92.83;97505.63;4961725;28;20050;-82
2023/03/10 07:24:47;;;;;;;3.70;2.15;;;;;;;10.09;93.03;97507.88;4980155;28;20109;-82
2023/03/10 07:27:14;;;;;;;4.82;1.48;;;;;;;10.12;93.06;97498.72;4979811;28;20044;-82
2023/03/10 07:29:41;;;;;;;5.28;1.40;;;;;;;10.14;93.02;97505.50;4989369;28;20052;-82
2023/03/10 07:32:08;;;;;;;3.83;1.27;;;;;;;10.16;93.01;97511.44;4986639;28;20157;-82
2023/03/10 07:34:35;;;;;;;6.25;1.45;;;;;;;10.19;92.69;97504.91;4987254;28;20050;-82
2023/03/10 07:37:01;;;;;;;6.90;1.60;;;;;;;10.21;92.71;97511.69;4979726;28;20505;-82
2023/03/10 07:39:28;;;;;;;3.00;1.60;;;;;;;10.24;92.78;97512.31;4963555;28;20122;-82
2023/03/10 07:41:55;;;;;;;3.63;1.73;;;;;;;10.26;92.73;97527.03;4980456;28;20046;-82
2023/03/10 07:44:22;;;;;;;9.05;2.50;;;;;;;10.29;92.79;97521.38;4982332;28;20045;-82
2023/03/10 07:46:49;;;;;;;4.28;1.52;;;;;;;10.33;92.83;97522.63;4980948;28;20046;-82
2023/03/10 07:49:16;;;;;;;5.82;1.63;;;;;;;10.35;92.55;97531.19;4959285;28;20050;-82
2023/03/10 07:51:44;;;;;;;5.90;2.03;;;;;;;10.40;92.61;97530.63;4983742;28;20046;-82
2023/03/10 07:54:12;;;;;;;10.38;3.83;;;;;;;10.43;92.44;97522.28;4972208;28;20041;-82
2023/03/10 07:56:38;;;;;;;6.53;3.15;;;;;;;10.47;92.20;97528.03;4969063;28;20134;-82
2023/03/10 07:59:05;;;;;;;6.10;3.10;;;;;;;10.48;92.01;97529.69;4983535;28;20114;-82
2023/03/10 08:01:32;;;;;;;7.75;3.70;;;;;;;10.48;92.17;97524.38;4968686;28;20056;-82
2023/03/10 08:03:59;;;;;;;10.48;2.58;;;;;;;10.48;92.13;97524.38;4968062;28;20505;-82
2023/03/10 08:06:28;;;;;;;8.73;2.70;;;;;;;10.48;91.54;97522.56;4982542;28;20038;-82
2023/03/10 08:08:54;;;;;;;5.65;1.92;;;;;;;10.45;91.41;97525.56;4983806;28;20054;-82
2023/03/10 08:11:21;;;;;;;5.03;1.92;;;;;;;10.45;91.15;97543.34;4979931;28;20047;-82
2023/03/10 08:13:48;;;;;;;8.70;2.10;;;;;;;10.45;91.27;97559.25;4971279;28;20069;-82
2023/03/10 08:16:18;;;;;;;4.45;1.90;;;;;;;10.43;91.19;97578.84;4967089;28;20042;-82
2023/03/10 08:18:45;;;;;;;11.10;2.80;;;;;;;10.40;91.35;97573.09;4954229;28;20406;-82
2023/03/10 08:21:11;;;;;;;9.30;1.70;;;;;;;10.39;91.29;97574.91;4972258;28;20105;-82
2023/03/10 08:23:38;;;;;;;6.60;1.50;;;;;;;10.37;90.85;97554.91;4951530;28;20046;-82
2023/03/10 08:26:06;;;;;;;4.47;0.70;;;;;;;10.34;89.54;97576.50;4948229;28;20042;-82
2023/03/10 08:28:34;;;;;;;7.38;1.40;;;;;;;10.32;89.40;97575.88;4963049;28;20043;-82
2023/03/10 08:31:09;;;;;;;2.42;1.35;;;;;;;10.29;89.19;97586.88;4972906;28;20062;-82
2023/03/10 08:33:37;;;;;;;5.32;1.77;;;;;;;10.26;89.49;97595.97;4983926;28;20048;-82
2023/03/10 08:36:06;;;;;;;3.92;1.80;;;;;;;10.15;88.14;97592.00;4980177;28;20078;-82
2023/03/10 08:38:33;;;;;;;4.38;2.00;;;;;;;10.17;88.90;97605.88;4977545;28;20042;-82
2023/03/10 08:41:28;;;;;;;8.57;1.58;;;;;;;10.05;88.38;97604.75;4975219;28;20055;-82
2023/03/10 08:43:56;;;;;;;6.80;1.60;;;;;;;10.11;88.69;97613.78;4970211;28;20050;-82
2023/03/10 08:46:25;;;;;;;3.58;0.98;;;;;;;10.11;89.21;97600.53;4984356;28;20519;-82
2023/03/10 08:48:52;;;;;;;3.67;1.00;;;;;;;10.08;89.44;97600.91;4973848;28;20042;-82
2023/03/10 08:51:19;;;;;;;3.47;1.58;;;;;;;10.08;89.42;97606.22;4983343;28;20049;-81
2023/03/10 08:53:47;;;;;;;8.10;1.60;;;;;;;10.07;89.68;97609.84;4980857;28;20466;-81
2023/03/10 08:56:14;;;;;;;6.88;1.52;;;;;;;10.05;89.66;97604.75;4972282;28;20452;-81
2023/03/10 08:58:41;;;;;;;9.63;1.65;;;;;;;10.05;89.85;97588.84;4971063;28;20594;-81
2023/03/10 09:01:08;;;;;;;7.15;1.45;;;;;;;10.05;89.80;97599.44;4979804;28;20125;-81
2023/03/10 09:03:36;;;;;;;8.93;1.48;;;;;;;10.08;89.89;97595.59;4950403;28;20059;-82
2023/03/10 09:06:03;;;;;;;9.52;2.00;;;;;;;10.11;90.33;97600.53;4979907;28;20060;-81
2023/03/10 09:08:30;;;;;;;10.23;1.90;;;;;;;10.16;90.53;97596.28;4982897;28;20050;-81
2023/03/10 09:10:56;;;;;;;7.75;2.25;;;;;;;10.19;90.95;97600.41;4970580;28;20046;-82
2023/03/10 09:13:23;;;;;;;11.35;1.80;;;;;;;10.24;91.17;97611.25;4981355;28;20050;-81
2023/03/10 09:15:51;;;;;;;13.80;1.83;;;;;;;10.19;90.95;97616.31;4970449;28;20105;-81
2023/03/10 09:18:18;;;;;;;7.97;1.45;;;;;;;10.23;90.42;97609.63;4978292;28;20100;-81
2023/03/10 09:20:45;;;;;;;11.52;1.42;;;;;;;10.21;90.75;97619.59;4981388;28;20126;-81
2023/03/10 09:23:14;;;;;;;9.63;1.38;;;;;;;10.24;90.50;97611.25;4949694;28;20046;-81
2023/03/10 09:25:41;;;;;;;6.35;1.38;;;;;;;10.27;91.15;97610.06;4967029;28;20050;-82
2023/03/10 09:28:09;;;;;;;14.48;2.88;;;;;;;10.30;90.95;97607.88;4961880;28;20050;-81
2023/03/10 09:30:39;;;;;;;9.57;1.90;;;;;;;10.33;90.83;97611.97;4974705;28;20107;-81
2023/03/10 09:33:09;;;;;;;15.48;1.73;;;;;;;10.32;90.94;97613.81;4977973;28;20053;-82
2023/03/10 09:35:36;;;;;;;12.00;2.25;;;;;;;10.36;91.11;97609.78;4956655;28;20161;-82
2023/03/10 09:38:13;;;;;;;16.08;2.15;;;;;;;10.36;90.67;97615.09;4956925;28;20101;-82
2023/03/10 09:41:03;;;;;;;17.60;2.30;;;;;;;10.24;90.80;97616.56;4952870;28;20742;-82
2023/03/10 09:43:36;;;;;;;13.13;3.35;;;;;;;10.33;90.70;97614.63;4946714;28;20053;-82
2023/03/10 09:46:21;;;;;;;17.33;3.15;;;;;;;10.32;91.04;97607.69;4988709;28;20535;-82
2023/03/10 09:48:55;;;;;;;14.50;2.08;;;;;;;10.43;90.89;97612.50;4938637;28;20066;-82
2023/03/10 09:51:22;;;;;;;;;;;;;;;10.32;91.71;97621.78;4957434;28;20043;-82
2023/03/10 09:54:25;;;;;;;10.80;2.20;;;;;;;10.33;90.92;97612.81;4943735;28;19922;-82
2023/03/10 09:56:54;;;;;;;14.55;2.28;;;;;;;10.37;90.78;97621.22;4919388;28;20612;-82
2023/03/10 09:59:32;;;;;;;10.70;2.75;;;;;;;10.36;90.98;97616.94;4968584;28;20133;-82
2023/03/10 10:02:01;;;;;;;10.95;1.58;;;;;;;10.41;90.89;97618.00;4959053;28;20066;-82
2023/03/10 10:04:33;;;;;;;8.27;2.15;;;;;;;10.41;90.96;97620.66;4989665;28;20474;-82
2023/03/10 10:06:59;;;;;;;12.50;2.30;;;;;;;10.47;91.35;97627.03;4983086;28;20108;-82
2023/03/10 10:09:29;;;;;;;10.40;1.70;;;;;;;10.50;91.70;97620.53;4986266;28;20168;-82
2023/03/10 10:11:56;;;;;;;16.63;2.72;;;;;;;10.55;91.56;97626.91;4977147;28;20405;-82
2023/03/10 10:14:27;;;;;;;8.07;1.45;;;;;;;10.55;91.92;97624.25;4988078;28;20058;-82
2023/03/10 10:17:01;;;;;;;11.35;2.10;;;;;;;10.56;91.92;97614.47;4985636;28;20069;-81
2023/03/10 10:19:28;;;;;;;13.85;2.38;;;;;;;10.59;91.92;97612.25;4984941;28;20046;-82
2023/03/10 10:22:25;;;;;;;13.18;1.70;;;;;;;10.56;92.14;97619.78;4984818;28;20051;-81
2023/03/10 10:25:07;;;;;;;11.82;2.00;;;;;;;10.55;92.47;97618.94;4924125;28;20471;-81
2023/03/10 10:27:39;;;;;;;19.55;3.35;;;;;;;10.62;92.08;97621.66;5005300;28;20101;-81
2023/03/10 10:30:32;;;;;;;9.13;1.80;;;;;;;10.59;92.38;97619.41;4984103;28;20521;-82
2023/03/10 10:33:06;;;;;;;;;;;;;;;10.55;93.33;97620.78;4931610;28;20059;-82
2023/03/10 10:35:45;;;;;;;11.90;1.50;;;;;;;10.63;93.11;97620.66;4965948;28;20100;-82
2023/03/10 10:38:14;;;;;;;4.47;1.20;;;;;;;10.70;92.82;97621.53;4934102;28;20050;-82
2023/03/10 10:40:50;;;;;;;8.50;1.60;;;;;;;10.65;92.97;97621.28;4974476;28;20062;-82
2023/03/10 10:43:18;;;;;;;8.93;1.40;;;;;;;10.71;92.95;97611.72;4973141;28;20046;-82
2023/03/10 10:45:53;;;;;;;7.47;1.48;;;;;;;10.67;92.64;97616.59;4981057;28;20125;-82
2023/03/10 10:48:45;;;;;;;6.80;2.08;;;;;;;10.63;92.68;97615.34;4947918;28;20043;-82
2023/03/10 10:51:28;;;;;;;6.63;1.80;;;;;;;10.67;92.49;97619.25;4926743;28;20773;-82
2023/03/10 10:53:59;;;;;;;13.52;2.95;;;;;;;10.70;92.74;97610.09;4948540;28;20062;-81
2023/03/10 10:56:29;;;;;;;8.68;2.22;;;;;;;10.70;92.46;97604.78;4975434;28;20054;-82
2023/03/10 10:59:06;;;;;;;5.72;2.42;;;;;;;10.64;91.50;97611.69;4987645;28;20053;-82
2023/03/10 11:02:00;;;;;;;5.90;1.25;;;;;;;10.58;91.32;97612.44;4952052;28;20641;-82
2023/03/10 11:04:40;;;;;;;9.77;2.00;;;;;;;10.61;90.52;97620.03;4935921;28;20042;-82
2023/03/10 11:07:26;;;;;;;7.63;1.88;;;;;;;10.54;91.05;97616.50;4990449;28;20042;-82
2023/03/10 11:09:55;;;;;;;6.47;1.45;;;;;;;10.67;90.35;97624.56;4951421;28;20046;-82
2023/03/10 11:12:43;;;;;;;6.00;1.45;;;;;;;10.63;90.24;97624.16;4969793;28;20045;-82
2023/03/10 11:15:20;;;;;;;4.78;1.58;;;;;;;10.60;89.76;97648.38;4956235;28;20501;-83
2023/03/10 11:17:59;;;;;;;5.40;2.00;;;;;;;10.61;89.50;97644.75;4976277;28;20352;-83
2023/03/10 11:20:50;;;;;;;8.90;1.63;;;;;;;10.58;89.45;97642.47;4976293;28;20478;-82
2023/03/10 11:23:20;;;;;;;7.72;1.65;;;;;;;10.64;90.32;97638.22;4947850;28;20050;-82
2023/03/10 11:25:52;;;;;;;5.47;1.80;;;;;;;10.64;90.14;97628.44;4964641;28;20046;-82
2023/03/10 11:28:25;;;;;;;3.60;1.10;;;;;;;10.63;90.40;97637.41;4967676;28;20049;-82
2023/03/10 11:31:01;;;;;;;4.97;1.33;;;;;;;10.63;90.58;97653.34;4962543;28;20086;-82
2023/03/10 11:33:53;;;;;;;5.13;1.35;;;;;;;10.62;91.13;97635.75;4969644;28;20061;-82
2023/03/10 11:36:38;;;;;;;3.55;1.23;;;;;;;10.59;91.03;97643.28;4942021;28;20049;-82
2023/03/10 11:39:33;;;;;;;3.28;0.93;;;;;;;10.61;90.55;97644.75;4964855;28;20046;-82
2023/03/10 11:42:10;;;;;;;4.32;0.80;;;;;;;10.64;90.59;97641.69;4946999;28;20051;-82
2023/03/10 11:44:41;;;;;;;2.03;0.90;;;;;;;10.62;90.91;97637.59;4984097;28;20436;-82
2023/03/10 11:47:37;;;;;;;3.05;1.10;;;;;;;10.54;90.39;97643.03;4980341;28;20047;-82